Saturday, October 25, 2014, 4:37 PM EDT
Back to Local

KPTW, Pottstown Limerick Airport

Location: Royersford, PA, United States Lat: 40.233
Local Time: 4:37 PM EDT (20:37 GMT) Lon: -75.55
Time Zone: US/Eastern Elev: 291 ft

Show me the last for .
Show Decoded

2014-10-25 15:54 METAR KPTW 251954Z AUTO 25010G16KT 10SM CLR 19/06 A2974 RMK AO2 SLP066 T01940061
                 =
2014-10-25 14:54 METAR KPTW 251854Z AUTO 27009G17KT 240V310 10SM CLR 19/06 A2976 RMK AO2 SLP075
                 T01940061 =
2014-10-25 13:54 METAR KPTW 251754Z AUTO 24009G17KT 10SM FEW055 19/06 A2979 RMK AO2 SLP084
                 T01890061 10189 20044 58037 =
2014-10-25 12:54 METAR KPTW 251654Z AUTO 25007G18KT 220V280 10SM CLR 18/06 A2982 RMK AO2 SLP095
                 T01780056 =
2014-10-25 11:54 METAR KPTW 251554Z AUTO 27007KT 10SM CLR 17/06 A2987 RMK AO2 SLP110 T01720056 =
2014-10-25 10:54 METAR KPTW 251454Z AUTO 30008KT 10SM CLR 16/05 A2990 RMK AO2 SLP121 T01560050
                 58011 =
2014-10-25 09:54 METAR KPTW 251354Z AUTO 29004KT 10SM CLR 12/05 A2991 RMK AO2 SLP127 T01220050 =
2014-10-25 07:54 METAR KPTW 251154Z AUTO 00000KT 10SM CLR 04/02 A2993 RMK AO2 SLP133 T00390022
                 10094 20039 53003 =
2014-10-25 06:54 METAR KPTW 251054Z AUTO 00000KT 10SM CLR 04/02 A2992 RMK AO2 SLP130 T00440017 =
2014-10-25 05:54 METAR KPTW 250954Z AUTO 00000KT 10SM CLR 04/02 A2992 RMK AO2 SLP129 T00440017 =
2014-10-25 04:54 METAR KPTW 250854Z AUTO 00000KT 10SM CLR 06/02 A2992 RMK AO2 SLP130 T00560017
                 50001 =
2014-10-25 03:54 METAR KPTW 250754Z AUTO 00000KT 10SM CLR 07/02 A2992 RMK AO2 SLP129 T00670017 =
2014-10-25 02:54 METAR KPTW 250654Z AUTO 00000KT 10SM CLR 09/02 A2992 RMK AO2 SLP128 T00890017 =
2014-10-25 01:54 METAR KPTW 250554Z AUTO 31003KT 10SM CLR 09/02 A2992 RMK AO2 SLP128 T00890017
                 10156 20089 53005 =
2014-10-25 00:54 METAR KPTW 250454Z AUTO 00000KT 10SM CLR 11/02 A2991 RMK AO2 SLP126 T01110017
                 402000100 =
2014-10-24 23:54 METAR KPTW 250354Z AUTO 30003KT 10SM CLR 11/02 A2990 RMK AO2 SLP122 T01060022 =
2014-10-24 21:54 METAR KPTW 250154Z AUTO 30003KT 10SM CLR 12/02 A2989 RMK AO2 SLP118 T01220017 =
2014-10-24 20:54 METAR KPTW 250054Z AUTO 33004KT 10SM CLR 14/02 A2988 RMK AO2 SLP116 T01390017 =
2014-10-24 19:54 METAR KPTW 242354Z AUTO 29003KT 10SM CLR 16/02 A2987 RMK AO2 SLP112 T01560022
                 10200 20156 51017 =
2014-10-24 18:54 METAR KPTW 242254Z AUTO VRB04KT 10SM CLR 17/04 A2986 RMK AO2 SLP107 T01670044 =
2014-10-24 17:54 METAR KPTW 242154Z AUTO 29003KT 10SM CLR 17/06 A2984 RMK AO2 SLP101 T01720061 =
2014-10-24 16:54 METAR KPTW 242054Z AUTO 30008KT 10SM CLR 18/06 A2982 RMK AO2 SLP096 T01830061
                 55006 =

Support USWX by starting your Amazon purchase here.